Temp: 10.3°C   Baro: 1019.2mb
  Wind: 0.9mph   Dir: S (173°)
  Rain: 0.0mm (0.0mm/hr)
  Solar: 0W/m2  Hum: 89%
 
Bath Spa Weather Station Historical Data
Daily Summary for November 22, 2020 Units:  English    Metric   Both
Daily Weekly Monthly Yearly Custom
  High: Low: Average:
Temperature: 51.1 °F 39.6 °F 45.9 °F
Dew Point: 49.5 °F 38.6 °F 44.3 °F
Humidity: 96% 79% 91%
Wind Speed: 4.9mph 0mph 0.7mph
Wind Gust: 9mph - -
Wind- - WNW
Pressure: 30.35 in 30.26 in -
Precipitation: 0.02 in    
Historical Graphs
 
 
Tabular Data for November 22, 2020
Time Temperature Dew Point Pressure Wind Wind Speed Wind Gust Humidity Rainfall Rate (Hourly) solar
00:04 50.5 °F 49.3 °F 30.26 in WSW 4.1 mph 8 mph 92% 0.00 in 0 W/m2
00:09 50.5 °F 49.3 °F 30.26 in West 2.4 mph 6 mph 92% 0.00 in 0 W/m2
00:14 50.5 °F 49.3 °F 30.26 in WSW 4.9 mph 9 mph 92% 0.00 in 0 W/m2
00:19 50.5 °F 49.3 °F 30.27 in WSW 3.8 mph 7 mph 92% 0.00 in 0 W/m2
00:24 50.5 °F 49.3 °F 30.27 in West 2.8 mph 5 mph 92% 0.00 in 0 W/m2
00:29 50.5 °F 49.3 °F 30.27 in WSW 4.2 mph 8 mph 92% 0.00 in 0 W/m2
00:34 50.6 °F 49.4 °F 30.27 in WSW 4.6 mph 8 mph 92% 0.00 in 0 W/m2
00:39 50.6 °F 49.4 °F 30.27 in West 4 mph 8 mph 92% 0.00 in 0 W/m2
00:44 50.5 °F 49.3 °F 30.26 in WSW 2.9 mph 7 mph 92% 0.00 in 0 W/m2
00:49 50.5 °F 49.3 °F 30.27 in WSW 1.7 mph 7 mph 92% 0.00 in 0 W/m2
00:54 50.5 °F 49.3 °F 30.27 in West 2.9 mph 6 mph 92% 0.00 in 0 W/m2
00:59 50.5 °F 49.3 °F 30.27 in WNW 2.7 mph 6 mph 92% 0.00 in 0 W/m2
01:04 50.4 °F 49.2 °F 30.27 in West 2.9 mph 6 mph 92% 0.00 in 0 W/m2
01:09 50.4 °F 49.2 °F 30.27 in West 2.8 mph 5 mph 92.4% 0.00 in 0 W/m2
01:14 50.4 °F 49.3 °F 30.27 in WNW 2 mph 5 mph 93% 0.01 in 0 W/m2
01:19 50.4 °F 49.3 °F 30.27 in WNW 2.8 mph 5 mph 93% 0.01 in 0 W/m2
01:24 50.4 °F 49.3 °F 30.27 in West 2.8 mph 5 mph 93% 0.01 in 0 W/m2
01:29 50.4 °F 49.3 °F 30.27 in West 1.2 mph 4 mph 93% 0.01 in 0 W/m2
01:34 50.4 °F 49.3 °F 30.27 in West 1.2 mph 4 mph 93% 0.01 in 0 W/m2
01:39 50.4 °F 49.3 °F 30.27 in West 0.8 mph 2 mph 93% 0.01 in 0 W/m2
01:44 50.4 °F 49.3 °F 30.27 in West 1.7 mph 3 mph 93% 0.01 in 0 W/m2
01:49 50.4 °F 49.3 °F 30.27 in West 0.8 mph 3 mph 93% 0.01 in 0 W/m2
01:54 50.4 °F 49.4 °F 30.27 in West 1.2 mph 4 mph 93.2% 0.01 in 0 W/m2
01:59 50.4 °F 49.3 °F 30.27 in West 1 mph 3 mph 93% 0.01 in 0 W/m2
02:04 50.4 °F 49.3 °F 30.27 in West 1.1 mph 4 mph 93% 0.01 in 0 W/m2
02:09 50.4 °F 49.4 °F 30.27 in West 0.6 mph 3 mph 93.4% 0.01 in 0 W/m2
02:14 50.4 °F 49.5 °F 30.27 in West 0.9 mph 2 mph 93.8% 0.01 in 0 W/m2
02:19 50.2 °F 49.5 °F 30.27 in West 1 mph 4 mph 94% 0.00 in 0 W/m2
02:24 50.2 °F 49.5 °F 30.27 in West 2 mph 4 mph 94% 0.00 in 0 W/m2
02:29 50.2 °F 49.5 °F 30.27 in West 1.6 mph 5 mph 94% 0.00 in 0 W/m2
02:34 50 °F 49.3 °F 30.27 in West 1.7 mph 5 mph 94% 0.00 in 0 W/m2
02:39 49.9 °F 49.2 °F 30.27 in West 1.4 mph 4 mph 94% 0.00 in 0 W/m2
02:44 49.8 °F 49.1 °F 30.27 in West 0.5 mph 3 mph 94% 0.00 in 0 W/m2
02:49 49.7 °F 49 °F 30.27 in West 0.8 mph 4 mph 94% 0.00 in 0 W/m2
02:54 49.6 °F 48.9 °F 30.27 in West 1.3 mph 4 mph 94% 0.00 in 0 W/m2
02:59 49.6 °F 48.9 °F 30.27 in West 2 mph 4 mph 94% 0.00 in 0 W/m2
03:04 49.5 °F 48.7 °F 30.28 in West 1.2 mph 3 mph 94% 0.00 in 0 W/m2
03:09 49.5 °F 48.7 °F 30.28 in West 0.4 mph 4 mph 94% 0.00 in 0 W/m2
03:14 49.4 °F 48.7 °F 30.28 in West 0.4 mph 3 mph 94% 0.00 in 0 W/m2
03:19 49.3 °F 48.6 °F 30.28 in West 0.8 mph 3 mph 94% 0.00 in 0 W/m2
03:24 49.1 °F 48.4 °F 30.28 in West 0.4 mph 2 mph 94% 0.00 in 0 W/m2
03:29 48.9 °F 48.2 °F 30.28 in Calm   1 mph 94% 0.00 in 0 W/m2
03:34 48.7 °F 48 °F 30.29 in Calm   1 mph 94% 0.00 in 0 W/m2
03:39 48.6 °F 47.9 °F 30.29 in Calm     94% 0.00 in 0 W/m2
03:44 48.4 °F 47.7 °F 30.29 in West 0.4 mph 2 mph 94% 0.00 in 0 W/m2
03:49 48 °F 47.3 °F 30.29 in West 0.2 mph 1 mph 94% 0.00 in 0 W/m2
03:54 47.7 °F 47 °F 30.29 in Calm     94% 0.00 in 0 W/m2
03:59 47.6 °F 46.9 °F 30.29 in Calm     94% 0.00 in 0 W/m2
04:04 47.3 °F 46.6 °F 30.29 in Calm   2 mph 94% 0.00 in 0 W/m2
04:09 47 °F 46.3 °F 30.29 in Calm     94% 0.00 in 0 W/m2
04:14 46.9 °F 46.2 °F 30.29 in Calm     94% 0.00 in 0 W/m2
04:19 46.9 °F 46.2 °F 30.29 in Calm     94% 0.00 in 0 W/m2
04:24 46.6 °F 45.9 °F 30.29 in West 0.2 mph 2 mph 94% 0.00 in 0 W/m2
04:29 46.2 °F 45.5 °F 30.29 in West 0.4 mph 2 mph 94% 0.00 in 0 W/m2
04:34 46 °F 45.3 °F 30.29 in Calm     94% 0.00 in 0 W/m2
04:39 46 °F 45.2 °F 30.29 in Calm     94% 0.00 in 0 W/m2
04:44 45.8 °F 45.1 °F 30.29 in Calm     94% 0.00 in 0 W/m2
04:49 45.7 °F 45 °F 30.29 in Calm     94% 0.00 in 0 W/m2
04:54 45.4 °F 44.7 °F 30.29 in Calm     94% 0.00 in 0 W/m2
04:59 45.1 °F 44.4 °F 30.29 in Calm     94% 0.00 in 0 W/m2
05:04 45.1 °F 44.4 °F 30.29 in Calm     94% 0.00 in 0 W/m2
05:09 45.2 °F 44.5 °F 30.29 in West 0.4 mph 2 mph 94% 0.00 in 0 W/m2
05:14 45.1 °F 44.5 °F 30.29 in Calm   1 mph 94.4% 0.00 in 0 W/m2
05:19 45.1 °F 44.4 °F 30.29 in Calm   2 mph 94% 0.00 in 0 W/m2
05:24 45 °F 44.3 °F 30.29 in West 0.2 mph 2 mph 94% 0.00 in 0 W/m2
05:29 45.1 °F 44.5 °F 30.29 in Calm     94.4% 0.00 in 0 W/m2
05:34 45 °F 44.2 °F 30.29 in Calm     94% 0.00 in 0 W/m2
05:39 44.9 °F 44.3 °F 30.29 in Calm     94.4% 0.00 in 0 W/m2
05:44 44.7 °F 44.3 °F 30.30 in Calm     95% 0.00 in 0 W/m2
05:49 44.5 °F 44.1 °F 30.29 in Calm     94.8% 0.00 in 0 W/m2
05:54 44.3 °F 43.6 °F 30.30 in Calm     94% 0.00 in 0 W/m2
05:59 44.2 °F 43.7 °F 30.30 in Calm     94.4% 0.00 in 0 W/m2
06:04 44.2 °F 43.9 °F 30.30 in Calm     95% 0.00 in 0 W/m2
06:09 44.1 °F 43.8 °F 30.30 in Calm     95% 0.00 in 0 W/m2
06:14 44.2 °F 43.8 °F 30.30 in Calm     95% 0.00 in 0 W/m2
06:19 44.1 °F 43.7 °F 30.30 in Calm     95% 0.00 in 0 W/m2
06:24 44.1 °F 43.7 °F 30.30 in Calm     95% 0.00 in 0 W/m2
06:29 44.2 °F 43.9 °F 30.30 in Calm     95% 0.00 in 0 W/m2
06:34 44.1 °F 43.7 °F 30.30 in Calm     95% 0.00 in 0 W/m2
06:39 44.1 °F 43.7 °F 30.31 in Calm     95% 0.00 in 0 W/m2
06:44 43.9 °F 43.5 °F 30.31 in Calm     95% 0.00 in 0 W/m2
06:49 43.9 °F 43.5 °F 30.31 in Calm     95% 0.00 in 0 W/m2
06:54 43.9 °F 43.5 °F 30.31 in Calm     95% 0.00 in 0 W/m2
06:59 43.7 °F 43.3 °F 30.31 in Calm     95% 0.00 in 0 W/m2
07:04 43.7 °F 43.3 °F 30.31 in Calm     95% 0.00 in 0 W/m2
07:09 43.7 °F 43.3 °F 30.32 in Calm     95% 0.00 in 0 W/m2
07:14 43.7 °F 43.3 °F 30.31 in Calm     95% 0.00 in 0 W/m2
07:19 43.7 °F 43.3 °F 30.32 in Calm     95% 0.00 in 0 W/m2
07:24 43.7 °F 43.3 °F 30.32 in Calm     95% 0.00 in 0 W/m2
07:29 43.7 °F 43.3 °F 30.32 in Calm     95% 0.00 in 0 W/m2
07:34 43.9 °F 43.5 °F 30.32 in Calm     95% 0.00 in 0 W/m2
07:39 43.9 °F 43.5 °F 30.32 in Calm     95% 0.00 in 0 W/m2
07:44 44.1 °F 43.7 °F 30.32 in Calm     95% 0.00 in 0 W/m2
07:49 44.1 °F 43.8 °F 30.32 in Calm     95% 0.00 in 0 W/m2
07:54 44.2 °F 43.9 °F 30.32 in Calm   2 mph 95% 0.00 in 0 W/m2
07:59 44.4 °F 44.1 °F 30.32 in Calm   2 mph 95% 0.00 in 5 W/m2
08:04 44.4 °F 44.1 °F 30.32 in West 0.2 mph 2 mph 95% 0.00 in 7 W/m2
08:09 44.4 °F 44.1 °F 30.32 in West 1.1 mph 2 mph 95% 0.00 in 11 W/m2
08:14 44.4 °F 44.1 °F 30.32 in West 0.4 mph 2 mph 95% 0.00 in 12 W/m2
08:19 44.4 °F 44.1 °F 30.32 in Calm   1 mph 95% 0.00 in 14 W/m2
08:24 44.4 °F 44.1 °F 30.32 in Calm   2 mph 95% 0.00 in 18 W/m2
08:29 44.5 °F 44.1 °F 30.33 in Calm   1 mph 95% 0.00 in 18 W/m2
08:34 44.6 °F 44.2 °F 30.33 in West 0.8 mph 2 mph 95% 0.00 in 19 W/m2
08:39 44.5 °F 44.2 °F 30.33 in West 0.5 mph 3 mph 95% 0.00 in 19 W/m2
08:44 44.7 °F 44.3 °F 30.33 in Calm   2 mph 95% 0.00 in 21 W/m2
08:49 44.7 °F 44.3 °F 30.33 in Calm   1 mph 95% 0.00 in 26 W/m2
08:54 44.7 °F 44.3 °F 30.33 in West 0.2 mph 2 mph 95% 0.00 in 33 W/m2
08:59 44.8 °F 44.4 °F 30.34 in Calm   2 mph 95% 0.00 in 40 W/m2
09:04 44.7 °F 44.3 °F 30.34 in West 0.5 mph 2 mph 95% 0.00 in 44 W/m2
09:09 44.5 °F 44.1 °F 30.34 in West 0.2 mph 2 mph 95% 0.00 in 42 W/m2
09:14 44.7 °F 44.3 °F 30.34 in West 0.2 mph 1 mph 95% 0.00 in 44 W/m2
09:19 44.7 °F 44.3 °F 30.34 in West 0.9 mph 2 mph 95% 0.00 in 54 W/m2
09:24 44.6 °F 44.2 °F 30.34 in West 0.4 mph 2 mph 95% 0.00 in 67 W/m2
09:29 44.6 °F 44.2 °F 30.34 in West 0.5 mph 2 mph 95% 0.00 in 58 W/m2
09:34 44.6 °F 44.2 °F 30.34 in Calm   1 mph 95% 0.00 in 83 W/m2
09:39 44.7 °F 44.3 °F 30.34 in West 0.5 mph 2 mph 95% 0.00 in 102 W/m2
09:44 44.6 °F 44.3 °F 30.34 in Calm   1 mph 95.4% 0.00 in 118 W/m2
09:49 44.8 °F 44.4 °F 30.34 in West 0.2 mph 1 mph 95% 0.00 in 107 W/m2
09:54 44.8 °F 44.4 °F 30.34 in Calm   1 mph 95% 0.01 in 134 W/m2
09:59 44.9 °F 44.4 °F 30.34 in Calm     95% 0.01 in 137 W/m2
10:04 45 °F 44.7 °F 30.34 in Calm     95.8% 0.01 in 128 W/m2
10:09 45.1 °F 45 °F 30.34 in Calm     96% 0.01 in 171 W/m2
10:14 45.3 °F 45.1 °F 30.34 in Calm     96% 0.01 in 93 W/m2
10:19 45.3 °F 45.1 °F 30.34 in Calm   1 mph 96% 0.01 in 123 W/m2
10:24 45.3 °F 45.1 °F 30.34 in Calm     96% 0.01 in 111 W/m2
10:29 45.3 °F 45.1 °F 30.34 in Calm     96% 0.01 in 83 W/m2
10:34 45.5 °F 45.3 °F 30.34 in Calm     96% 0.01 in 72 W/m2
10:39 45.7 °F 45.5 °F 30.35 in Calm     96% 0.01 in 125 W/m2
10:44 45.7 °F 45.5 °F 30.35 in Calm     96% 0.01 in 142 W/m2
10:49 45.9 °F 45.7 °F 30.35 in Calm   1 mph 96% 0.01 in 171 W/m2
10:54 46 °F 45.9 °F 30.35 in West 0.5 mph 3 mph 96% 0.00 in 176 W/m2
10:59 46 °F 45.8 °F 30.35 in West 0.4 mph 3 mph 96% 0.00 in 190 W/m2
11:04 46 °F 45.9 °F 30.35 in Calm   1 mph 96% 0.00 in 139 W/m2
11:09 46 °F 45.9 °F 30.35 in West 0.4 mph 2 mph 96% 0.00 in 128 W/m2
11:14 45.9 °F 45.7 °F 30.35 in Calm   1 mph 96% 0.00 in 155 W/m2
11:19 46.2 °F 46 °F 30.35 in West 0.6 mph 3 mph 96% 0.00 in 181 W/m2
11:24 46.4 °F 46.2 °F 30.35 in Calm   3 mph 96% 0.00 in 199 W/m2
11:29 46.7 °F 46.5 °F 30.34 in West 0.9 mph 3 mph 96% 0.00 in 220 W/m2
11:34 46.8 °F 46.6 °F 30.34 in West 0.2 mph 3 mph 96% 0.00 in 288 W/m2
11:39 47.2 °F 47 °F 30.34 in Calm     96% 0.00 in 262 W/m2
11:44 47.3 °F 47.1 °F 30.34 in West 0.4 mph 2 mph 96% 0.00 in 190 W/m2
11:49 47.1 °F 46.9 °F 30.34 in Calm   2 mph 96% 0.00 in 174 W/m2
11:54 47.6 °F 47.4 °F 30.34 in Calm   1 mph 96% 0.00 in 186 W/m2
11:59 47.5 °F 47.3 °F 30.34 in West 0.4 mph 2 mph 96% 0.00 in 149 W/m2
12:04 47.5 °F 47.3 °F 30.34 in West 0.6 mph 3 mph 96% 0.00 in 199 W/m2
12:09 47.5 °F 47.2 °F 30.34 in West 0.8 mph 4 mph 95.8% 0.00 in 181 W/m2
12:14 47.6 °F 47 °F 30.34 in West 0.2 mph 4 mph 95% 0.00 in 178 W/m2
12:19 48 °F 47.5 °F 30.34 in West 0.2 mph 2 mph 95% 0.00 in 172 W/m2
12:24 48.5 °F 47.9 °F 30.33 in West 0.2 mph 1 mph 95% 0.00 in 179 W/m2
12:29 48.6 °F 48 °F 30.33 in West 0.2 mph 2 mph 95% 0.00 in 248 W/m2
12:34 48.7 °F 48 °F 30.33 in West 0.2 mph 2 mph 94% 0.00 in 255 W/m2
12:39 49.4 °F 48.4 °F 30.33 in West 0.2 mph 2 mph 93.2% 0.00 in 267 W/m2
12:44 49.6 °F 48.2 °F 30.33 in West 0.6 mph 3 mph 91.4% 0.00 in 267 W/m2
12:49 50.2 °F 48 °F 30.33 in West 1.2 mph 4 mph 89.4% 0.00 in 269 W/m2
12:54 50.3 °F 47.5 °F 30.33 in West 1.3 mph 5 mph 87% 0.00 in 265 W/m2
12:59 50.8 °F 47.1 °F 30.33 in West 0.9 mph 4 mph 84.2% 0.00 in 264 W/m2
13:04 51.1 °F 46.8 °F 30.32 in WNW 2.5 mph 8 mph 82.6% 0.00 in 315 W/m2
13:08 50.6 °F 45.8 °F 30.32 in WNW 3 mph 8 mph 80.8% 0.00 in 218 W/m2
13:14 50.5 °F 45.5 °F 30.32 in WNW 2.5 mph 6 mph 80% 0.00 in 137 W/m2
13:19 50.4 °F 45.5 °F 30.32 in WNW 1.6 mph 6 mph 80.2% 0.00 in 139 W/m2
13:24 50.5 °F 45.9 °F 30.32 in WNW 2.5 mph 4 mph 81% 0.00 in 130 W/m2
13:29 50.5 °F 45.9 °F 30.32 in WNW 2.7 mph 7 mph 81% 0.00 in 121 W/m2
13:34 50.4 °F 45.8 °F 30.32 in WNW 4.2 mph 7 mph 81% 0.00 in 102 W/m2
13:39 50.4 °F 45.9 °F 30.32 in WNW 2.2 mph 7 mph 81.6% 0.00 in 77 W/m2
13:44 50.3 °F 46 °F 30.32 in West 3 mph 6 mph 82% 0.00 in 151 W/m2
13:49 50.3 °F 45.6 °F 30.32 in West 3.6 mph 6 mph 81% 0.00 in 188 W/m2
13:54 50.4 °F 45.8 °F 30.32 in West 2.1 mph 5 mph 81% 0.00 in 186 W/m2
13:59 50.5 °F 45.7 °F 30.31 in WNW 2.4 mph 6 mph 80.6% 0.00 in 130 W/m2
14:04 50.5 °F 45.5 °F 30.31 in NW 1.7 mph 6 mph 80% 0.00 in 156 W/m2
14:09 50.5 °F 45.3 °F 30.31 in NW 2.7 mph 6 mph 79.6% 0.00 in 144 W/m2
14:14 50.4 °F 45 °F 30.31 in WNW 4 mph 7 mph 79% 0.00 in 139 W/m2
14:19 50.4 °F 45 °F 30.31 in NW 4.7 mph 8 mph 79% 0.00 in 107 W/m2
14:24 50.2 °F 44.8 °F 30.31 in WNW 4.4 mph 8 mph 79% 0.00 in 105 W/m2
14:29 50.2 °F 44.8 °F 30.31 in West 4.4 mph 7 mph 79% 0.00 in 95 W/m2
14:34 50.2 °F 44.8 °F 30.31 in West 3.7 mph 7 mph 79% 0.00 in 97 W/m2
14:39 50.1 °F 44.7 °F 30.31 in WNW 2.8 mph 8 mph 79% 0.00 in 88 W/m2
14:44 50 °F 44.6 °F 30.31 in NW 2.9 mph 6 mph 79% 0.00 in 77 W/m2
14:49 49.8 °F 44.4 °F 30.31 in WNW 4 mph 7 mph 79% 0.00 in 63 W/m2
14:54 49.6 °F 44.2 °F 30.31 in WNW 3.7 mph 7 mph 79% 0.00 in 60 W/m2
14:59 49.5 °F 44.1 °F 30.31 in WNW 4.7 mph 7 mph 79% 0.00 in 53 W/m2
15:04 49.5 °F 44.1 °F 30.31 in WNW 2.7 mph 5 mph 79% 0.00 in 69 W/m2
15:09 49.5 °F 44.1 °F 30.31 in WNW 2.1 mph 5 mph 79% 0.00 in 58 W/m2
15:14 49.5 °F 44.2 °F 30.32 in WNW 1.7 mph 5 mph 79.2% 0.00 in 46 W/m2
15:19 49.4 °F 44.3 °F 30.32 in NW 2.5 mph 7 mph 80% 0.00 in 39 W/m2
15:24 49.4 °F 44.3 °F 30.32 in WNW 1 mph 3 mph 80% 0.00 in 40 W/m2
15:29 49.5 °F 44.4 °F 30.32 in WNW 0.4 mph 4 mph 80% 0.00 in 33 W/m2
15:34 49.5 °F 44.4 °F 30.32 in WNW 1.3 mph 3 mph 80% 0.00 in 26 W/m2
15:39 49.5 °F 44.8 °F 30.32 in WNW 0.9 mph 3 mph 81% 0.00 in 21 W/m2
15:44 49.5 °F 44.8 °F 30.32 in WNW 0.6 mph 4 mph 81% 0.00 in 18 W/m2
15:49 49.3 °F 44.7 °F 30.32 in WNW 1.4 mph 4 mph 81.2% 0.00 in 14 W/m2
15:54 49.3 °F 45 °F 30.32 in Calm   3 mph 82% 0.00 in 14 W/m2
15:59 49.2 °F 44.9 °F 30.32 in WNW 0.2 mph 3 mph 82% 0.00 in 12 W/m2
16:04 49 °F 44.7 °F 30.32 in WNW 1 mph 4 mph 82% 0.00 in 9 W/m2
16:09 48.9 °F 44.8 °F 30.32 in WNW 0.5 mph 4 mph 83% 0.00 in 7 W/m2
16:14 48.7 °F 44.8 °F 30.32 in WNW 1.2 mph 3 mph 83% 0.00 in 5 W/m2
16:19 48.7 °F 44.8 °F 30.32 in Calm   2 mph 83% 0.00 in 0 W/m2
16:24 48.6 °F 44.7 °F 30.32 in WNW 0.5 mph 3 mph 83% 0.00 in 0 W/m2
16:29 48.6 °F 44.6 °F 30.32 in Calm   2 mph 83.4% 0.00 in 0 W/m2
16:34 48.4 °F 44.6 °F 30.32 in Calm     84% 0.00 in 0 W/m2
16:39 48.2 °F 44.4 °F 30.32 in Calm     84% 0.00 in 0 W/m2
16:44 48 °F 44.2 °F 30.32 in Calm     84% 0.00 in 0 W/m2
16:49 47.8 °F 44.4 °F 30.32 in Calm     85% 0.00 in 0 W/m2
16:54 47.7 °F 44.2 °F 30.32 in Calm     85% 0.00 in 0 W/m2
16:59 47.3 °F 43.9 °F 30.32 in Calm     85% 0.00 in 0 W/m2
17:04 47 °F 43.9 °F 30.32 in Calm     85.6% 0.00 in 0 W/m2
17:09 46.8 °F 43.8 °F 30.32 in Calm     86% 0.00 in 0 W/m2
17:14 46.5 °F 43.4 °F 30.32 in Calm     86% 0.00 in 0 W/m2
17:19 46.2 °F 43.2 °F 30.32 in Calm     86% 0.00 in 0 W/m2
17:24 46 °F 43.3 °F 30.32 in Calm     87% 0.00 in 0 W/m2
17:29 45.8 °F 43.1 °F 30.32 in Calm     87% 0.00 in 0 W/m2
17:34 45.5 °F 42.8 °F 30.32 in Calm     87% 0.00 in 0 W/m2
17:39 45.2 °F 42.5 °F 30.32 in Calm     87% 0.00 in 0 W/m2
17:44 45 °F 42.3 °F 30.32 in Calm     87% 0.00 in 0 W/m2
17:49 44.6 °F 42.1 °F 30.32 in WNW 0.6 mph 3 mph 88% 0.00 in 0 W/m2
17:54 44.2 °F 41.7 °F 30.33 in WNW 1.6 mph 3 mph 88% 0.00 in 0 W/m2
17:59 44.1 °F 41.6 °F 30.33 in WNW 0.4 mph 3 mph 88% 0.00 in 0 W/m2
18:04 43.9 °F 41.6 °F 30.33 in WNW 1.2 mph 3 mph 88.8% 0.00 in 0 W/m2
18:09 43.8 °F 41.6 °F 30.33 in Calm   3 mph 89% 0.00 in 0 W/m2
18:14 43.7 °F 41.5 °F 30.33 in Calm     89% 0.00 in 0 W/m2
18:19 43.7 °F 41.5 °F 30.33 in Calm     89% 0.00 in 0 W/m2
18:24 43.5 °F 41.4 °F 30.33 in Calm     89% 0.00 in 0 W/m2
18:29 43.4 °F 41.6 °F 30.33 in Calm     89.8% 0.00 in 0 W/m2
18:34 43.3 °F 41.5 °F 30.33 in Calm     90% 0.00 in 0 W/m2
18:39 43.2 °F 41.4 °F 30.33 in Calm     90% 0.00 in 0 W/m2
18:44 43 °F 41.2 °F 30.33 in Calm     90% 0.00 in 0 W/m2
18:49 42.8 °F 41 °F 30.34 in Calm     90% 0.00 in 0 W/m2
18:54 42.5 °F 40.7 °F 30.34 in Calm     90% 0.00 in 0 W/m2
18:59 42.2 °F 40.4 °F 30.34 in Calm     90% 0.00 in 0 W/m2
19:04 42.1 °F 40.3 °F 30.34 in Calm     90% 0.00 in 0 W/m2
19:09 42.1 °F 40.3 °F 30.34 in Calm   1 mph 90% 0.00 in 0 W/m2
19:14 42.1 °F 40.3 °F 30.34 in Calm     90% 0.00 in 0 W/m2
19:19 41.9 °F 40.1 °F 30.34 in Calm     90% 0.00 in 0 W/m2
19:24 41.7 °F 39.9 °F 30.34 in Calm     90.2% 0.00 in 0 W/m2
19:29 41.7 °F 40.1 °F 30.34 in Calm     91% 0.00 in 0 W/m2
19:34 41.7 °F 40.1 °F 30.34 in Calm     91% 0.00 in 0 W/m2
19:39 41.5 °F 39.9 °F 30.34 in Calm     91% 0.00 in 0 W/m2
19:44 41.5 °F 39.9 °F 30.34 in Calm     91% 0.00 in 0 W/m2
19:49 41.5 °F 39.9 °F 30.34 in Calm     91% 0.00 in 0 W/m2
19:54 41.5 °F 39.9 °F 30.34 in Calm     91% 0.00 in 0 W/m2
19:59 41.5 °F 39.9 °F 30.34 in Calm     91% 0.00 in 0 W/m2
20:04 41.4 °F 39.7 °F 30.34 in Calm     91% 0.00 in 0 W/m2
20:09 41.5 °F 39.8 °F 30.34 in Calm     91% 0.00 in 0 W/m2
20:14 41.5 °F 39.9 °F 30.34 in Calm     91% 0.00 in 0 W/m2
20:19 41.5 °F 39.9 °F 30.34 in Calm     91% 0.00 in 0 W/m2
20:24 41.7 °F 40.1 °F 30.34 in Calm     91% 0.00 in 0 W/m2
20:29 41.7 °F 40.2 °F 30.34 in Calm     91.3% 0.00 in 0 W/m2
20:34 41.7 °F 40.5 °F 30.34 in Calm     92% 0.00 in 0 W/m2
20:39 41.7 °F 40.5 °F 30.34 in Calm     92% 0.00 in 0 W/m2
20:44 41.7 °F 40.5 °F 30.34 in Calm     92% 0.00 in 0 W/m2
20:49 41.5 °F 40.3 °F 30.34 in Calm     92% 0.00 in 0 W/m2
20:54 41.5 °F 40.2 °F 30.35 in Calm     92% 0.00 in 0 W/m2
20:59 41.5 °F 40.3 °F 30.35 in Calm     92% 0.00 in 0 W/m2
21:04 41.5 °F 40.3 °F 30.35 in Calm     92% 0.00 in 0 W/m2
21:09 41.5 °F 40.3 °F 30.35 in Calm     92% 0.00 in 0 W/m2
21:14 41.5 °F 40.3 °F 30.35 in Calm     92% 0.00 in 0 W/m2
21:19 41.5 °F 40.3 °F 30.35 in Calm     92% 0.00 in 0 W/m2
21:24 41.5 °F 40.2 °F 30.35 in Calm     92% 0.00 in 0 W/m2
21:29 41.5 °F 40.3 °F 30.35 in Calm     92% 0.00 in 0 W/m2
21:34 41.5 °F 40.3 °F 30.35 in Calm     92% 0.00 in 0 W/m2
21:39 41.5 °F 40.2 °F 30.35 in Calm     92% 0.00 in 0 W/m2
21:44 41.4 °F 40.1 °F 30.35 in Calm     92% 0.00 in 0 W/m2
21:49 41.5 °F 40.3 °F 30.35 in Calm     92% 0.00 in 0 W/m2
21:54 41.5 °F 40.3 °F 30.34 in Calm     92% 0.00 in 0 W/m2
21:59 41.4 °F 40.1 °F 30.34 in Calm     92% 0.00 in 0 W/m2
22:04 41.3 °F 40 °F 30.35 in Calm     92% 0.00 in 0 W/m2
22:09 41.2 °F 39.9 °F 30.35 in Calm     92% 0.00 in 0 W/m2
22:14 41.1 °F 39.8 °F 30.35 in Calm     92% 0.00 in 0 W/m2
22:19 40.9 °F 39.6 °F 30.35 in Calm     92% 0.00 in 0 W/m2
22:24 40.7 °F 39.5 °F 30.35 in Calm     92% 0.00 in 0 W/m2
22:29 40.6 °F 39.3 °F 30.34 in Calm     92% 0.00 in 0 W/m2
22:34 40.5 °F 39.3 °F 30.35 in Calm     92.2% 0.00 in 0 W/m2
22:39 40.3 °F 39.3 °F 30.35 in Calm     92.8% 0.00 in 0 W/m2
22:44 39.9 °F 38.7 °F 30.34 in Calm     92% 0.00 in 0 W/m2
22:49 39.9 °F 38.8 °F 30.35 in Calm     92.2% 0.00 in 0 W/m2
22:54 39.7 °F 38.8 °F 30.35 in Calm     93% 0.00 in 0 W/m2
22:59 39.7 °F 38.6 °F 30.35 in Calm     92.4% 0.00 in 0 W/m2
23:04 39.6 °F 38.7 °F 30.35 in Calm     92.8% 0.00 in 0 W/m2
23:09 39.6 °F 38.7 °F 30.35 in Calm     93% 0.00 in 0 W/m2
23:14 39.6 °F 38.7 °F 30.35 in Calm     93% 0.00 in 0 W/m2
23:19 39.6 °F 38.7 °F 30.35 in Calm     93% 0.00 in 0 W/m2
23:24 39.7 °F 38.8 °F 30.35 in Calm     93% 0.00 in 0 W/m2
23:29 39.7 °F 38.8 °F 30.35 in WNW 0.2 mph 2 mph 93% 0.00 in 0 W/m2
23:34 39.7 °F 38.8 °F 30.35 in Calm     93% 0.00 in 0 W/m2
23:39 39.9 °F 39 °F 30.35 in Calm     93% 0.00 in 0 W/m2
23:44 39.9 °F 39 °F 30.35 in Calm     93% 0.00 in 0 W/m2
23:49 40 °F 39.1 °F 30.35 in Calm     93% 0.00 in 0 W/m2
23:54 40.1 °F 39.2 °F 30.35 in Calm     93% 0.00 in 0 W/m2
23:59 40.1 °F 39.2 °F 30.35 in Calm     93% 0.00 in 0 W/m2
Bath Spa Weather
Compliments of Weather Underground - 2 mb